KDMA

Davis Monthan AFB Airport

Tucson, Arizona, USA
METAR KDMA 161258Z AUTO 13011KT 10SM SCT110 SCT130 12/M08 A3013 RMK AO2 SLP183 T01151084 $
Observed Flight Rules
Dec-16 @ 12:58 UTC (45 minutes ago) Visual Flight Rules
Wind Visibility Clouds
130° at 11 knots 10 miles
  • Scattered at 11,000' AGL
  • Scattered at 13,000' AGL
Temperatures Readings
Current 12°C / 54°F
Dewpoint -8°C / 18°F
Humidity 24%
Altimeter 30.13" Hg
Pressure 1018.3 hPa
Elevation 824
METAR KDMA 161258Z AUTO 13011KT 10SM SCT110 SCT130 12/M08 A3013 RMK AO2 SLP183 T01151084 $
Observed Flight Rules
Dec-16 @ 12:58 UTC
(45 minutes ago)
VFR
Wind Visibility
130° at 11 knots 10 miles
Clouds
  • Scattered at 11,000' AGL
  • Scattered at 13,000' AGL
Temperature Dewpoint
12°C / 54°F -8°C / 18°F
Humidity Altimeter Pressure
24% 30.13" Hg 1018.3 hPa